Time;durP1;ratioP1;P1;durP2;ratioP2;P2;SDS_P1;SDS_P2;PMS_P1;PMS_P2;Temp;Humidity;BMP_temperature;BMP_pressure;BME280_temperature;BME280_humidity;BME280_pressure;Samples;Min_cycle;Max_cycle;Signal;HPM_P1;HPM_P2
2021/03/28 00:00:56;;;;;;;8.23;2.70;;;9.30;58.50;;;;;;4972401;28;20483;-85
2021/03/28 00:03:41;;;;;;;6.07;2.90;;;9.40;58.50;;;;;;4968327;28;20035;-84
2021/03/28 00:06:35;;;;;;;8.07;3.27;;;9.40;58.40;;;;;;4962372;28;20132;-84
2021/03/28 00:09:35;;;;;;;5.17;2.50;;;9.50;58.40;;;;;;4962291;28;20513;-84
2021/03/28 00:12:07;;;;;;;6.73;2.90;;;9.40;58.30;;;;;;4970747;28;20033;-85
2021/03/28 00:14:41;;;;;;;6.80;2.70;;;9.40;58.30;;;;;;4973109;28;20498;-84
2021/03/28 00:17:19;;;;;;;5.50;2.70;;;9.30;58.40;;;;;;4988279;28;20031;-85
2021/03/28 00:19:51;;;;;;;5.73;2.70;;;9.30;58.70;;;;;;4987890;28;20368;-85
2021/03/28 00:22:27;;;;;;;6.07;2.83;;;9.40;58.70;;;;;;4971100;28;20031;-85
2021/03/28 00:25:35;;;;;;;6.70;3.20;;;9.30;58.60;;;;;;4975208;28;20549;-85
2021/03/28 00:28:08;;;;;;;5.53;2.50;;;9.30;58.70;;;;;;4974200;28;20035;-86
2021/03/28 00:30:41;;;;;;;7.03;2.97;;;9.40;58.60;;;;;;4973679;28;20440;-85
2021/03/28 00:33:06;;;;;;;;;;;9.30;58.50;;;;;;4973299;28;20055;-85
2021/03/28 00:35:54;;;;;;;10.53;5.07;;;9.40;58.50;;;;;;4955968;28;19913;-85
2021/03/28 00:38:26;;;;;;;6.27;2.77;;;9.30;58.50;;;;;;4970840;28;20030;-85
2021/03/28 00:41:24;;;;;;;7.60;3.30;;;9.30;58.80;;;;;;4989637;28;20026;-85
2021/03/28 00:44:11;;;;;;;8.90;3.40;;;9.40;58.90;;;;;;4968140;28;20054;-85
2021/03/28 00:46:55;;;;;;;9.23;3.60;;;9.40;58.80;;;;;;4973634;28;20039;-85
2021/03/28 00:49:33;;;;;;;5.40;2.80;;;9.40;58.80;;;;;;4963126;28;20134;-85
2021/03/28 00:52:04;;;;;;;4.93;2.87;;;9.30;58.80;;;;;;4990320;28;20022;-85
2021/03/28 00:54:51;;;;;;;5.30;2.80;;;9.30;59.00;;;;;;4967343;28;20027;-86
2021/03/28 00:57:29;;;;;;;4.43;2.57;;;9.30;59.20;;;;;;4967294;28;20391;-85
2021/03/28 01:00:14;;;;;;;7.73;3.03;;;9.30;59.10;;;;;;4974209;28;20031;-85
2021/03/28 01:03:08;;;;;;;7.07;2.80;;;9.30;59.10;;;;;;4974921;28;20039;-85
2021/03/28 01:05:39;;;;;;;8.27;2.97;;;9.30;59.30;;;;;;4972141;28;20067;-85
2021/03/28 01:08:08;;;;;;;6.10;3.10;;;9.20;59.20;;;;;;4959740;28;20458;-85
2021/03/28 01:11:02;;;;;;;8.23;3.00;;;9.20;59.40;;;;;;4956248;28;20369;-84
2021/03/28 01:13:58;;;;;;;5.43;3.33;;;9.20;60.10;;;;;;4991207;28;20058;-85
2021/03/28 01:16:57;;;;;;;5.70;2.50;;;9.10;59.50;;;;;;4975767;28;20058;-85
2021/03/28 01:19:45;;;;;;;4.27;2.70;;;9.10;59.50;;;;;;4968955;28;20372;-85
2021/03/28 01:22:42;;;;;;;6.80;2.33;;;9.10;59.50;;;;;;4969985;28;20054;-85
2021/03/28 01:25:34;;;;;;;4.90;1.70;;;9.10;59.60;;;;;;4957556;28;20058;-85
2021/03/28 01:28:30;;;;;;;6.78;2.17;;;9.10;59.70;;;;;;4985648;28;20055;-85
2021/03/28 01:31:04;;;;;;;7.27;2.70;;;9.10;59.70;;;;;;4974588;28;20047;-85
2021/03/28 01:33:59;;;;;;;4.03;2.83;;;9.10;59.70;;;;;;4971471;28;20138;-85
2021/03/28 01:36:49;;;;;;;5.17;2.80;;;9.10;59.70;;;;;;4958080;28;20085;-85
2021/03/28 01:39:26;;;;;;;6.27;3.10;;;9.10;59.70;;;;;;4970678;28;20039;-84
2021/03/28 01:42:02;;;;;;;6.50;2.70;;;9.10;59.70;;;;;;4962073;28;20042;-84
2021/03/28 01:44:41;;;;;;;5.87;3.27;;;9.10;59.70;;;;;;4970733;28;20019;-84
2021/03/28 01:47:41;;;;;;;6.37;3.00;;;9.10;59.70;;;;;;4964878;28;20023;-84
2021/03/28 01:50:41;;;;;;;4.33;2.40;;;9.10;59.80;;;;;;4972202;28;20035;-84
2021/03/28 01:53:25;;;;;;;5.70;2.60;;;9.10;59.80;;;;;;4962360;28;20487;-85
2021/03/28 01:56:07;;;;;;;6.03;2.87;;;9.10;59.90;;;;;;4970866;28;20023;-84
2021/03/28 01:59:27;;;;;;;5.20;2.93;;;9.00;59.80;;;;;;4968755;28;20109;-84
2021/03/28 02:02:29;;;;;;;5.63;3.17;;;8.90;60.00;;;;;;4963993;28;20398;-85
2021/03/28 02:05:10;;;;;;;7.03;2.53;;;8.80;60.30;;;;;;4950857;28;20031;-84
2021/03/28 02:07:58;;;;;;;3.73;2.23;;;8.80;60.50;;;;;;4967304;28;20047;-84
2021/03/28 02:10:45;;;;;;;5.33;3.43;;;8.70;60.40;;;;;;4955849;28;20034;-84
2021/03/28 02:13:26;;;;;;;4.47;2.73;;;8.70;60.30;;;;;;4955727;28;20543;-85
2021/03/28 02:16:02;;;;;;;10.10;4.13;;;8.70;60.50;;;;;;4967790;28;20028;-84
2021/03/28 02:18:46;;;;;;;10.33;5.60;;;8.70;60.70;;;;;;4968797;28;20043;-84
2021/03/28 02:21:31;;;;;;;11.80;4.77;;;8.60;60.60;;;;;;4974009;28;20030;-83
2021/03/28 02:23:58;;;;;;;9.67;4.63;;;8.60;60.70;;;;;;4965419;28;20348;-84
2021/03/28 02:27:07;;;;;;;5.30;2.70;;;8.60;60.90;;;;;;4972762;28;20035;-84
2021/03/28 02:29:48;;;;;;;7.43;2.70;;;8.60;61.00;;;;;;4954287;28;20443;-83
2021/03/28 02:32:20;;;;;;;7.13;2.80;;;8.50;60.80;;;;;;4986217;28;20070;-84
2021/03/28 02:35:02;;;;;;;4.23;1.70;;;8.60;60.90;;;;;;4969877;28;20419;-83
2021/03/28 02:37:44;;;;;;;6.13;2.08;;;8.50;60.90;;;;;;4959234;28;20374;-83
2021/03/28 02:40:24;;;;;;;5.17;1.90;;;8.50;61.00;;;;;;4963594;28;20861;-84
2021/03/28 02:43:02;;;;;;;4.80;2.20;;;8.30;60.90;;;;;;4963641;28;20158;-83
2021/03/28 02:45:32;;;;;;;7.13;3.97;;;8.20;61.30;;;;;;4963420;28;20387;-85
2021/03/28 02:48:14;;;;;;;7.57;3.53;;;8.20;61.30;;;;;;4972480;28;20038;-86
2021/03/28 02:50:55;;;;;;;5.40;2.40;;;8.20;61.30;;;;;;4964573;28;20078;-85
2021/03/28 02:53:47;;;;;;;6.73;2.00;;;8.10;61.20;;;;;;4961721;28;20023;-84
2021/03/28 02:56:31;;;;;;;4.63;1.70;;;8.10;61.10;;;;;;4961837;28;20446;-85
2021/03/28 02:59:35;;;;;;;5.37;1.83;;;8.00;61.10;;;;;;4970814;28;20031;-84
2021/03/28 03:02:00;;;;;;;;;;;8.00;61.10;;;;;;4971971;28;20505;-85
2021/03/28 03:04:44;;;;;;;7.47;2.23;;;7.90;60.90;;;;;;4973510;28;19910;-84
2021/03/28 03:07:19;;;;;;;6.77;2.13;;;7.90;60.90;;;;;;4971753;28;20050;-84
2021/03/28 03:10:15;;;;;;;6.33;2.47;;;7.80;60.70;;;;;;4985300;28;20031;-83
2021/03/28 03:12:50;;;;;;;8.30;1.87;;;7.70;60.70;;;;;;4967599;28;20033;-84
2021/03/28 03:19:20;;;;;;;8.00;2.97;;;7.60;61.10;;;;;;4972461;28;20033;-83
2021/03/28 03:21:54;;;;;;;21.37;15.80;;;7.50;61.00;;;;;;4932149;29;20185;-84
2021/03/28 03:25:01;;;;;;;4.90;2.37;;;7.60;61.10;;;;;;4951322;29;20070;-83
2021/03/28 03:27:33;;;;;;;5.50;2.30;;;7.60;60.90;;;;;;4954957;28;20061;-85
2021/03/28 03:30:11;;;;;;;7.07;3.13;;;7.60;60.80;;;;;;4963420;28;20077;-84
2021/03/28 03:33:09;;;;;;;5.97;2.77;;;7.50;60.90;;;;;;4987961;28;20057;-86
2021/03/28 03:36:06;;;;;;;4.33;1.90;;;7.50;60.80;;;;;;4968896;28;20424;-83
2021/03/28 03:38:59;;;;;;;4.07;2.03;;;7.60;60.70;;;;;;4970160;28;20027;-85
2021/03/28 03:41:49;;;;;;;3.78;1.45;;;7.60;60.40;;;;;;4963631;28;20047;-84
2021/03/28 03:44:29;;;;;;;6.07;1.53;;;7.50;60.30;;;;;;4953202;28;20538;-85
2021/03/28 03:47:16;;;;;;;6.47;1.50;;;7.40;60.10;;;;;;4969702;28;20992;-84
2021/03/28 03:50:06;;;;;;;5.83;1.40;;;7.40;60.00;;;;;;4976880;28;20656;-84
2021/03/28 03:52:40;;;;;;;11.97;1.50;;;7.40;59.90;;;;;;4977938;28;20079;-85
2021/03/28 03:55:17;;;;;;;4.27;1.73;;;7.30;59.90;;;;;;4975857;28;20022;-84
2021/03/28 03:57:46;;;;;;;5.73;1.47;;;7.30;59.90;;;;;;4975264;28;20039;-83
2021/03/28 04:00:25;;;;;;;7.07;1.77;;;7.20;60.00;;;;;;4961814;28;20031;-84
2021/03/28 04:02:54;;;;;;;3.63;1.30;;;7.10;60.10;;;;;;4972921;28;20026;-84
2021/03/28 04:05:35;;;;;;;4.57;1.37;;;7.00;60.10;;;;;;4964548;28;20454;-84
2021/03/28 04:08:13;;;;;;;6.03;1.20;;;6.90;60.30;;;;;;4982666;28;20070;-84
2021/03/28 04:11:09;;;;;;;8.73;1.27;;;6.90;60.30;;;;;;4969928;28;20066;-83
2021/03/28 04:13:52;;;;;;;2.33;1.00;;;6.90;60.20;;;;;;4967291;28;20506;-84
2021/03/28 04:16:36;;;;;;;6.30;1.42;;;6.90;60.00;;;;;;4969020;28;20034;-85
2021/03/28 04:19:23;;;;;;;6.70;1.07;;;6.90;60.00;;;;;;4974682;28;20552;-85
2021/03/28 04:22:10;;;;;;;6.50;2.70;;;6.90;60.00;;;;;;4965844;28;20486;-85
2021/03/28 04:25:16;;;;;;;4.57;2.10;;;6.90;59.90;;;;;;4955514;28;20050;-83
2021/03/28 04:31:15;;;;;;;2.73;1.40;;;6.90;59.90;;;;;;4970337;28;20029;-83
2021/03/28 04:33:47;;;;;;;6.03;1.67;;;6.80;59.80;;;;;;4967813;28;20027;-83
2021/03/28 04:36:32;;;;;;;4.28;1.45;;;6.80;59.90;;;;;;4969828;28;20026;-83
2021/03/28 04:39:21;;;;;;;4.90;1.57;;;6.80;59.80;;;;;;4972009;28;20522;-83
2021/03/28 04:42:21;;;;;;;4.00;1.77;;;6.70;59.90;;;;;;4971782;28;20559;-87
2021/03/28 04:45:24;;;;;;;3.40;1.80;;;6.60;59.70;;;;;;4968202;28;20487;-86
2021/03/28 04:48:29;;;;;;;5.75;2.08;;;6.50;60.20;;;;;;4971048;28;20073;-85
2021/03/28 04:51:22;;;;;;;4.97;1.97;;;6.60;60.10;;;;;;4968074;28;20034;-83
2021/03/28 04:54:06;;;;;;;;;;;6.50;60.20;;;;;;4960129;28;20117;-82
2021/03/28 04:56:38;;;;;;;6.40;2.37;;;6.70;60.30;;;;;;4969894;28;19921;-83
2021/03/28 04:59:09;;;;;;;5.37;1.87;;;6.60;59.90;;;;;;4974320;28;20439;-83
2021/03/28 05:01:54;;;;;;;4.40;2.00;;;6.60;60.10;;;;;;4970397;28;20047;-82
2021/03/28 05:04:23;;;;;;;5.50;1.80;;;6.50;60.10;;;;;;4964800;28;20024;-80
2021/03/28 05:07:26;;;;;;;7.40;2.30;;;6.60;60.70;;;;;;4973666;28;20499;-80
2021/03/28 05:09:57;;;;;;;3.17;1.92;;;6.70;60.50;;;;;;4968874;28;20031;-80
2021/03/28 05:12:51;;;;;;;4.10;2.17;;;6.70;60.30;;;;;;4978713;28;20495;-80
2021/03/28 05:15:28;;;;;;;12.40;2.77;;;6.80;60.80;;;;;;4960246;28;20032;-80
2021/03/28 05:18:00;;;;;;;7.43;2.47;;;6.90;60.20;;;;;;4963223;28;20041;-80
2021/03/28 05:20:57;;;;;;;4.47;1.83;;;7.00;60.20;;;;;;4971529;28;20035;-80
2021/03/28 05:23:47;;;;;;;6.33;2.10;;;7.10;60.00;;;;;;4974600;28;20363;-80
2021/03/28 05:26:43;;;;;;;5.23;2.40;;;7.10;59.70;;;;;;4954280;28;20375;-80
2021/03/28 05:29:23;;;;;;;8.97;3.50;;;7.10;59.40;;;;;;4972419;28;20136;-80
2021/03/28 05:32:22;;;;;;;9.30;3.03;;;7.00;59.90;;;;;;4967674;28;20050;-80
2021/03/28 05:35:06;;;;;;;8.33;4.10;;;7.00;59.90;;;;;;4966301;28;20031;-79
2021/03/28 05:37:58;;;;;;;8.03;3.67;;;6.90;59.60;;;;;;4960924;28;20031;-79
2021/03/28 05:40:36;;;;;;;6.73;3.50;;;6.90;59.70;;;;;;4975115;28;20483;-80
2021/03/28 05:43:23;;;;;;;10.10;3.30;;;6.80;59.80;;;;;;4970416;28;20027;-80
2021/03/28 05:46:23;;;;;;;4.93;2.50;;;6.90;59.90;;;;;;4967500;28;20031;-81
2021/03/28 05:49:32;;;;;;;8.27;3.10;;;6.80;59.70;;;;;;4970850;28;20090;-80
2021/03/28 05:52:04;;;;;;;6.07;3.43;;;6.80;59.70;;;;;;4971786;28;20113;-80
2021/03/28 05:54:48;;;;;;;7.13;3.20;;;6.80;59.70;;;;;;4971099;28;20030;-80
2021/03/28 05:57:35;;;;;;;10.30;4.93;;;6.80;59.70;;;;;;4967361;28;20391;-80
2021/03/28 06:00:19;;;;;;;13.33;8.83;;;6.80;59.80;;;;;;4972440;28;20071;-80
2021/03/28 06:03:06;;;;;;;8.27;4.97;;;6.70;59.70;;;;;;4978641;28;20024;-81
2021/03/28 06:05:57;;;;;;;8.17;4.00;;;6.70;59.80;;;;;;4970762;28;20027;-81
2021/03/28 06:08:54;;;;;;;10.60;4.20;;;6.70;59.70;;;;;;4981532;28;20260;-81
2021/03/28 06:11:57;;;;;;;12.60;4.10;;;6.60;59.70;;;;;;4964233;28;20039;-80
2021/03/28 06:14:41;;;;;;;66.15;43.30;;;6.60;59.90;;;;;;4966602;28;20154;-80
2021/03/28 06:17:10;;;;;;;21.23;11.20;;;6.60;59.80;;;;;;4970519;28;20023;-80
2021/03/28 06:19:57;;;;;;;19.97;10.87;;;6.60;60.00;;;;;;4964342;28;20107;-80
2021/03/28 06:23:01;;;;;;;15.30;6.70;;;6.60;60.00;;;;;;4969242;28;20125;-80
2021/03/28 06:25:54;;;;;;;16.57;7.23;;;6.60;60.20;;;;;;4936561;29;20056;-81
2021/03/28 06:28:40;;;;;;;10.20;5.28;;;6.70;60.20;;;;;;4969854;28;20039;-81
2021/03/28 06:31:55;;;;;;;11.53;5.07;;;6.80;60.30;;;;;;4971327;28;20039;-81
2021/03/28 06:34:49;;;;;;;11.00;5.33;;;6.90;60.10;;;;;;4966331;28;20033;-81
2021/03/28 06:37:52;;;;;;;10.17;4.83;;;6.90;60.10;;;;;;4965263;28;20027;-81
2021/03/28 06:40:45;;;;;;;8.95;4.40;;;6.90;60.00;;;;;;4965704;28;20059;-81
2021/03/28 06:43:48;;;;;;;5.85;2.53;;;7.00;60.10;;;;;;4962233;28;20499;-81
2021/03/28 06:46:45;;;;;;;6.40;2.63;;;7.10;60.40;;;;;;4956775;28;20484;-83
2021/03/28 06:49:17;;;;;;;4.53;2.30;;;7.10;60.30;;;;;;4962015;28;20081;-82
2021/03/28 06:51:57;;;;;;;6.97;2.70;;;7.20;60.30;;;;;;4969320;28;20030;-81
2021/03/28 06:55:02;;;;;;;5.87;2.57;;;7.20;60.10;;;;;;4962231;28;20027;-81
2021/03/28 06:57:39;;;;;;;5.53;2.70;;;7.20;60.00;;;;;;4971524;28;20049;-81
2021/03/28 07:00:33;;;;;;;5.63;2.30;;;7.20;60.00;;;;;;4970325;28;20516;-80
2021/03/28 07:03:01;;;;;;;;;;;7.20;59.90;;;;;;4964809;28;20588;-80
2021/03/28 07:05:46;;;;;;;4.57;2.30;;;7.30;59.80;;;;;;4971376;28;19914;-80
2021/03/28 07:08:49;;;;;;;5.60;2.40;;;7.30;59.70;;;;;;4961677;28;20057;-80
2021/03/28 07:11:36;;;;;;;4.15;2.42;;;7.40;59.70;;;;;;4959319;28;20138;-80
2021/03/28 07:14:25;;;;;;;6.33;2.33;;;7.40;59.60;;;;;;4967508;28;20036;-82
2021/03/28 07:17:09;;;;;;;6.17;2.30;;;7.50;59.70;;;;;;4960956;28;20468;-82
2021/03/28 07:20:10;;;;;;;6.13;2.57;;;7.50;59.90;;;;;;4983700;28;20049;-81
2021/03/28 07:23:03;;;;;;;7.30;2.50;;;7.60;59.70;;;;;;4978880;28;20038;-82
2021/03/28 07:25:41;;;;;;;5.93;2.42;;;7.60;59.70;;;;;;4954539;28;20129;-82
2021/03/28 07:28:34;;;;;;;5.80;2.73;;;7.80;59.70;;;;;;4957776;28;20042;-82
2021/03/28 07:31:19;;;;;;;6.97;3.30;;;7.90;59.60;;;;;;4972047;28;20487;-82
2021/03/28 07:33:51;;;;;;;6.97;2.90;;;7.90;59.40;;;;;;4971900;28;20026;-83
2021/03/28 07:36:54;;;;;;;7.53;3.67;;;7.90;59.50;;;;;;4963275;28;20043;-82
2021/03/28 07:40:10;;;;;;;11.85;4.10;;;8.00;59.60;;;;;;4969898;28;20078;-82
2021/03/28 07:42:57;;;;;;;8.10;4.40;;;8.00;59.70;;;;;;4966431;28;20031;-81
2021/03/28 07:45:41;;;;;;;11.27;5.20;;;8.20;59.60;;;;;;4968791;28;20041;-81
2021/03/28 07:48:35;;;;;;;6.50;4.17;;;8.30;59.50;;;;;;4960128;28;20031;-82
2021/03/28 07:51:27;;;;;;;9.63;4.90;;;8.50;59.30;;;;;;4963180;28;20039;-82
2021/03/28 07:54:11;;;;;;;9.73;5.00;;;8.60;59.10;;;;;;4976074;28;20065;-82
2021/03/28 07:57:05;;;;;;;9.33;4.50;;;8.70;59.00;;;;;;4966953;28;20034;-81
2021/03/28 07:59:30;;;;;;;8.63;4.13;;;8.80;58.90;;;;;;4970147;28;20105;-82
2021/03/28 08:02:14;;;;;;;25.87;8.93;;;9.00;58.70;;;;;;4962365;28;20095;-82
2021/03/28 08:04:58;;;;;;;15.47;6.90;;;9.20;58.50;;;;;;4978213;28;20065;-82
2021/03/28 08:07:59;;;;;;;9.67;3.43;;;9.40;58.30;;;;;;4969544;28;20503;-82
2021/03/28 08:11:00;;;;;;;8.57;3.03;;;9.50;57.90;;;;;;4984016;28;20030;-82
2021/03/28 08:13:47;;;;;;;4.37;2.43;;;9.70;57.60;;;;;;4968776;28;20388;-82
2021/03/28 08:16:54;;;;;;;6.13;2.80;;;9.90;57.10;;;;;;4965839;28;20369;-82
2021/03/28 08:19:29;;;;;;;6.07;2.83;;;10.10;56.70;;;;;;4933588;29;20583;-83
2021/03/28 08:22:27;;;;;;;4.17;2.17;;;10.20;56.50;;;;;;4944200;29;20047;-83
2021/03/28 08:25:04;;;;;;;4.63;2.20;;;10.40;56.00;;;;;;4939137;28;20118;-82
2021/03/28 08:27:58;;;;;;;3.67;2.07;;;10.60;55.90;;;;;;4967691;28;20395;-82
2021/03/28 08:30:33;;;;;;;5.57;1.77;;;10.80;55.00;;;;;;4965837;28;20506;-82
2021/03/28 08:33:20;;;;;;;7.83;2.60;;;11.00;54.60;;;;;;4957987;28;20034;-82
2021/03/28 08:36:17;;;;;;;5.50;2.47;;;11.10;54.00;;;;;;4958943;28;20491;-82
2021/03/28 08:39:06;;;;;;;5.77;3.10;;;11.40;53.60;;;;;;4972363;28;20496;-82
2021/03/28 08:42:00;;;;;;;5.00;2.47;;;11.50;53.30;;;;;;4972126;28;20503;-83
2021/03/28 08:44:55;;;;;;;5.60;2.17;;;11.70;53.10;;;;;;4976470;28;20030;-82
2021/03/28 08:47:58;;;;;;;5.13;2.40;;;11.80;52.70;;;;;;4984903;28;20035;-82
2021/03/28 08:50:38;;;;;;;3.88;2.35;;;12.00;52.40;;;;;;4971452;28;20082;-81
2021/03/28 08:53:42;;;;;;;5.67;2.23;;;12.10;52.20;;;;;;4973019;28;20053;-82
2021/03/28 08:56:19;;;;;;;9.93;2.70;;;12.20;52.10;;;;;;4959357;28;20035;-82
2021/03/28 08:59:10;;;;;;;4.10;1.83;;;12.30;51.70;;;;;;4966415;28;20493;-82
2021/03/28 09:01:39;;;;;;;3.53;1.80;;;12.30;51.20;;;;;;4966982;28;20073;-82
2021/03/28 09:04:16;;;;;;;4.00;2.20;;;12.50;51.30;;;;;;4973440;28;20050;-82
2021/03/28 09:06:58;;;;;;;2.30;1.30;;;12.70;50.60;;;;;;4972419;28;20038;-82
2021/03/28 09:09:47;;;;;;;3.93;2.07;;;13.00;50.30;;;;;;4955135;28;20024;-82
2021/03/28 09:12:35;;;;;;;4.43;2.10;;;13.10;49.50;;;;;;4954685;28;20102;-82
2021/03/28 09:15:21;;;;;;;5.10;2.30;;;13.30;49.70;;;;;;4963724;28;20350;-82
2021/03/28 09:17:59;;;;;;;9.23;3.57;;;13.40;48.80;;;;;;4970864;28;20089;-82
2021/03/28 09:20:55;;;;;;;7.37;2.87;;;13.40;48.90;;;;;;4965043;28;20026;-82
2021/03/28 09:23:36;;;;;;;7.90;2.93;;;13.60;48.70;;;;;;4973027;28;20031;-82
2021/03/28 09:26:39;;;;;;;5.23;2.07;;;13.70;48.50;;;;;;4972243;28;20034;-83
2021/03/28 09:29:34;;;;;;;5.68;1.58;;;13.80;47.60;;;;;;4979607;28;20038;-82
2021/03/28 09:32:21;;;;;;;5.70;1.83;;;13.90;47.60;;;;;;4959017;28;20045;-82
2021/03/28 09:35:22;;;;;;;2.73;1.67;;;14.10;47.00;;;;;;4963253;28;20038;-82
2021/03/28 09:38:32;;;;;;;5.33;2.20;;;14.20;46.20;;;;;;4964613;28;20062;-83
2021/03/28 09:41:10;;;;;;;8.07;2.07;;;14.20;45.90;;;;;;4968705;28;20035;-83
2021/03/28 09:43:41;;;;;;;5.90;1.80;;;14.30;46.00;;;;;;4971110;28;20054;-82
2021/03/28 09:46:16;;;;;;;4.90;2.03;;;14.50;45.70;;;;;;4969542;28;20043;-82
2021/03/28 09:49:21;;;;;;;4.97;1.60;;;14.50;45.10;;;;;;4967773;28;21913;-82
2021/03/28 09:52:09;;;;;;;5.10;1.87;;;14.70;44.40;;;;;;4960298;28;20062;-83
2021/03/28 09:54:56;;;;;;;5.20;1.63;;;14.80;44.10;;;;;;4966135;28;20097;-83
2021/03/28 09:57:33;;;;;;;3.70;1.47;;;14.80;44.00;;;;;;4969520;28;20114;-82
2021/03/28 10:00:08;;;;;;;4.27;1.80;;;14.80;44.10;;;;;;4966991;28;20171;-83
2021/03/28 10:03:13;;;;;;;6.80;2.50;;;14.90;43.60;;;;;;4968886;28;20026;-83
2021/03/28 10:05:40;;;;;;;4.43;2.10;;;15.00;43.70;;;;;;4977276;28;20070;-82
2021/03/28 10:08:10;;;;;;;3.57;1.50;;;15.10;43.90;;;;;;4969869;28;20057;-82
2021/03/28 10:10:53;;;;;;;4.13;1.77;;;15.30;43.80;;;;;;4982112;28;20031;-82
2021/03/28 10:13:50;;;;;;;5.00;1.53;;;15.30;43.60;;;;;;4968756;28;20035;-82
2021/03/28 10:16:39;;;;;;;3.93;2.17;;;15.20;42.70;;;;;;4966822;28;20035;-82
2021/03/28 10:19:21;;;;;;;5.60;1.90;;;15.20;43.00;;;;;;4965849;28;20070;-82
2021/03/28 10:22:08;;;;;;;5.28;2.38;;;15.30;42.80;;;;;;4968624;28;20066;-82
2021/03/28 10:24:56;;;;;;;5.43;1.98;;;15.50;43.00;;;;;;4967679;28;20104;-83
2021/03/28 10:27:40;;;;;;;5.53;2.00;;;15.70;42.50;;;;;;4966851;28;20486;-82
2021/03/28 10:30:40;;;;;;;4.75;1.90;;;15.80;42.10;;;;;;4956235;28;20035;-83
2021/03/28 10:33:21;;;;;;;3.13;1.60;;;15.70;41.10;;;;;;4969613;28;20122;-83
2021/03/28 10:35:47;;;;;;;3.42;2.10;;;15.70;41.30;;;;;;4969976;28;20498;-82
2021/03/28 10:38:15;;;;;;;4.55;1.92;;;15.80;41.00;;;;;;4969456;28;20053;-83
2021/03/28 10:40:46;;;;;;;2.85;1.60;;;15.90;40.80;;;;;;4956140;28;20031;-83
2021/03/28 10:43:47;;;;;;;6.90;2.00;;;15.90;39.90;;;;;;4981707;28;20039;-82
2021/03/28 10:46:24;;;;;;;4.22;1.50;;;15.80;39.50;;;;;;4968774;28;20062;-82
2021/03/28 10:49:19;;;;;;;2.22;1.27;;;15.90;39.30;;;;;;4966971;28;20431;-83
2021/03/28 10:52:22;;;;;;;6.43;1.98;;;15.80;38.70;;;;;;4954659;28;20395;-82
2021/03/28 10:55:26;;;;;;;6.60;1.77;;;15.90;38.70;;;;;;4962333;28;20121;-83
2021/03/28 10:58:10;;;;;;;;;;;16.10;38.90;;;;;;4978164;28;20502;-83
2021/03/28 11:01:13;;;;;;;4.95;1.23;;;16.10;39.20;;;;;;4966984;28;19910;-83
2021/03/28 11:04:20;;;;;;;2.70;1.40;;;16.10;38.50;;;;;;4955454;28;20030;-83
2021/03/28 11:07:07;;;;;;;4.15;1.30;;;16.10;38.40;;;;;;4922802;29;20052;-83
2021/03/28 11:09:59;;;;;;;10.02;5.80;;;16.00;37.90;;;;;;4957309;28;20039;-83
2021/03/28 11:13:02;;;;;;;4.65;2.00;;;16.10;38.10;;;;;;4979544;28;20369;-83
2021/03/28 11:16:01;;;;;;;3.65;2.00;;;16.10;37.50;;;;;;4968984;28;20075;-83
2021/03/28 11:18:35;;;;;;;5.78;1.70;;;16.20;37.90;;;;;;4986962;28;20019;-83
2021/03/28 11:21:58;;;;;;;3.95;2.20;;;16.10;37.90;;;;;;4974017;28;20034;-83
2021/03/28 11:24:33;;;;;;;3.72;1.75;;;16.30;38.20;;;;;;4950596;28;20038;-83
2021/03/28 11:27:08;;;;;;;3.78;2.10;;;16.50;38.00;;;;;;4932785;28;20451;-83
2021/03/28 11:30:12;;;;;;;6.53;1.90;;;16.50;37.50;;;;;;4954628;28;20046;-83
2021/03/28 11:32:59;;;;;;;2.88;1.73;;;16.70;37.00;;;;;;4947357;28;20752;-83
2021/03/28 11:35:28;;;;;;;5.13;1.70;;;16.70;36.70;;;;;;4969224;28;20027;-83
2021/03/28 11:38:16;;;;;;;3.65;1.77;;;16.60;37.00;;;;;;4960644;28;20022;-82
2021/03/28 11:41:11;;;;;;;4.25;1.63;;;16.70;36.80;;;;;;4957940;28;20118;-82
2021/03/28 11:43:42;;;;;;;4.03;1.52;;;16.70;36.40;;;;;;4975022;28;20055;-82
2021/03/28 11:46:30;;;;;;;7.25;1.55;;;16.50;36.60;;;;;;4963884;28;20042;-82
2021/03/28 11:48:55;;;;;;;4.07;1.70;;;16.50;36.60;;;;;;4970954;28;20066;-82
2021/03/28 11:51:33;;;;;;;4.55;2.53;;;16.50;36.70;;;;;;4968481;28;20514;-82
2021/03/28 11:54:15;;;;;;;4.95;1.65;;;16.60;36.30;;;;;;4964552;28;20035;-82
2021/03/28 11:57:02;;;;;;;3.15;1.58;;;16.80;36.30;;;;;;4968836;28;20387;-82
2021/03/28 11:59:41;;;;;;;2.30;1.70;;;16.90;36.40;;;;;;4968455;28;20113;-82
2021/03/28 12:02:10;;;;;;;2.58;1.35;;;17.10;36.10;;;;;;4967384;28;20038;-82
2021/03/28 12:04:50;;;;;;;4.25;1.50;;;17.10;35.70;;;;;;4961312;28;20113;-82
2021/03/28 12:07:30;;;;;;;4.00;1.98;;;17.20;35.20;;;;;;4961661;28;20074;-82
2021/03/28 12:10:02;;;;;;;1.58;1.05;;;17.20;34.80;;;;;;4962287;28;20495;-82
2021/03/28 12:12:31;;;;;;;;;;;17.30;34.90;;;;;;4972208;28;20085;-82
2021/03/28 12:15:35;;;;;;;3.63;1.90;;;17.40;35.10;;;;;;4971860;28;19921;-82
2021/03/28 12:18:31;;;;;;;7.32;1.73;;;17.40;34.70;;;;;;4971735;28;20015;-82
2021/03/28 12:21:03;;;;;;;2.58;1.30;;;17.30;34.20;;;;;;4971259;28;20063;-82
2021/03/28 12:23:52;;;;;;;2.87;1.57;;;17.40;34.30;;;;;;4965945;28;20459;-82
2021/03/28 12:26:18;;;;;;;2.95;1.92;;;17.60;33.90;;;;;;4971801;28;20110;-82
2021/03/28 12:28:50;;;;;;;3.47;1.38;;;17.60;33.70;;;;;;4970360;28;20114;-82
2021/03/28 12:31:50;;;;;;;3.47;1.40;;;17.60;33.60;;;;;;4969876;28;20494;-82
2021/03/28 12:34:30;;;;;;;2.28;1.50;;;17.70;33.20;;;;;;4958392;28;20102;-82
2021/03/28 12:37:01;;;;;;;2.13;1.40;;;17.70;33.30;;;;;;4973203;28;20034;-82
2021/03/28 12:39:37;;;;;;;2.85;1.58;;;17.80;33.10;;;;;;4968303;28;20026;-82
2021/03/28 12:42:27;;;;;;;4.90;1.27;;;17.80;33.10;;;;;;4969476;28;20034;-82
2021/03/28 12:45:14;;;;;;;3.95;1.52;;;17.90;33.20;;;;;;4973803;28;20023;-82
2021/03/28 12:47:49;;;;;;;9.68;1.92;;;17.90;32.30;;;;;;4968276;28;20036;-82
2021/03/28 12:50:15;;;;;;;2.75;1.63;;;18.00;31.90;;;;;;4973529;28;20125;-82
2021/03/28 12:52:45;;;;;;;4.85;1.65;;;18.00;31.80;;;;;;4971569;28;20065;-82
2021/03/28 12:55:30;;;;;;;3.15;1.35;;;18.00;31.30;;;;;;4972215;28;20030;-82
2021/03/28 12:58:08;;;;;;;3.65;1.55;;;18.10;31.00;;;;;;4960854;28;20031;-83
2021/03/28 13:00:40;;;;;;;4.82;1.67;;;18.20;31.00;;;;;;4970378;28;20031;-82
2021/03/28 13:03:33;;;;;;;2.65;1.52;;;18.30;30.70;;;;;;4971054;28;20345;-82
2021/03/28 13:06:05;;;;;;;;;;;18.30;30.50;;;;;;4964466;28;20062;-82
2021/03/28 13:08:45;;;;;;;5.53;1.40;;;18.30;31.10;;;;;;4964965;28;20293;-83
2021/03/28 13:11:12;;;;;;;2.17;1.25;;;18.30;30.60;;;;;;4982206;28;20030;-82
2021/03/28 13:13:47;;;;;;;3.47;1.58;;;18.30;30.70;;;;;;4969893;28;20061;-82
2021/03/28 13:16:26;;;;;;;3.85;1.52;;;18.30;30.70;;;;;;4966237;28;20027;-83
2021/03/28 13:18:53;;;;;;;5.20;1.80;;;18.40;30.70;;;;;;4984644;28;20037;-82
2021/03/28 13:21:27;;;;;;;3.67;1.40;;;18.40;30.60;;;;;;4970597;28;20032;-82
2021/03/28 13:24:05;;;;;;;3.65;1.48;;;18.40;30.30;;;;;;4963518;28;20166;-82
2021/03/28 13:26:36;;;;;;;4.28;1.70;;;18.30;30.30;;;;;;4971753;28;20922;-82
2021/03/28 13:29:02;;;;;;;5.10;1.50;;;18.30;30.50;;;;;;4976344;28;20070;-82
2021/03/28 13:31:27;;;;;;;4.30;1.75;;;18.40;30.70;;;;;;4973829;28;20046;-82
2021/03/28 13:33:58;;;;;;;2.78;1.50;;;18.50;30.50;;;;;;4970590;28;20053;-82
2021/03/28 13:36:42;;;;;;;2.85;1.48;;;18.50;30.00;;;;;;4965187;28;20034;-82
2021/03/28 13:39:07;;;;;;;3.88;1.42;;;18.50;30.00;;;;;;4965373;28;20027;-82
2021/03/28 13:41:40;;;;;;;2.78;1.20;;;18.60;30.30;;;;;;4969492;28;20214;-82
2021/03/28 13:44:26;;;;;;;5.05;1.27;;;18.70;29.90;;;;;;4961181;28;20031;-82
2021/03/28 13:46:58;;;;;;;1.85;1.00;;;18.60;30.20;;;;;;4964067;28;20091;-82
2021/03/28 13:49:30;;;;;;;1.75;1.10;;;18.60;29.80;;;;;;4970285;28;20027;-82
2021/03/28 13:52:23;;;;;;;3.25;1.38;;;18.50;29.40;;;;;;4973119;28;20027;-83
2021/03/28 13:55:06;;;;;;;1.38;1.10;;;18.50;29.20;;;;;;4973358;28;20027;-82
2021/03/28 13:57:35;;;;;;;2.53;1.20;;;18.50;29.40;;;;;;4971597;28;20027;-82
2021/03/28 14:00:32;;;;;;;3.13;1.15;;;18.50;29.40;;;;;;4971848;28;20035;-83
2021/03/28 14:03:12;;;;;;;2.72;1.23;;;18.60;29.40;;;;;;4978274;28;20117;-82
2021/03/28 14:05:41;;;;;;;2.67;1.33;;;18.60;29.20;;;;;;4957419;28;20082;-82
2021/03/28 14:08:15;;;;;;;1.98;1.13;;;18.60;29.20;;;;;;4967256;28;20050;-82
2021/03/28 14:10:50;;;;;;;7.47;1.80;;;18.60;29.10;;;;;;4981563;28;20047;-82
2021/03/28 14:13:27;;;;;;;1.98;1.10;;;18.60;29.10;;;;;;4973461;28;20057;-82
2021/03/28 14:16:00;;;;;;;2.22;1.08;;;18.70;29.10;;;;;;4971794;28;20033;-82
2021/03/28 14:18:47;;;;;;;4.75;1.33;;;18.80;29.80;;;;;;4972548;28;20031;-82
2021/03/28 14:21:34;;;;;;;8.20;1.40;;;18.90;29.50;;;;;;4969103;28;20037;-82
2021/03/28 14:24:12;;;;;;;3.15;1.30;;;19.00;29.60;;;;;;4972003;28;20035;-82
2021/03/28 14:26:40;;;;;;;4.13;1.20;;;19.10;29.70;;;;;;4965273;28;20445;-82
2021/03/28 14:29:33;;;;;;;2.50;1.40;;;19.10;29.90;;;;;;4972322;28;20038;-82
2021/03/28 14:32:13;;;;;;;4.40;1.40;;;19.20;29.90;;;;;;4967582;28;20031;-83